sensor_id;sensor_type;location;lat;lon;timestamp;P1;durP1;ratioP1;P2;durP2;ratioP2
34581;SDS011;20814;49.364;8.804;2022-08-23T00:02:23;2.78;;;2.00;;
34581;SDS011;20814;49.364;8.804;2022-08-23T00:04:48;2.85;;;2.22;;
34581;SDS011;20814;49.364;8.804;2022-08-23T00:07:13;2.17;;;1.97;;
34581;SDS011;20814;49.364;8.804;2022-08-23T00:09:39;3.80;;;2.33;;
34581;SDS011;20814;49.364;8.804;2022-08-23T00:14:31;2.63;;;2.28;;
34581;SDS011;20814;49.364;8.804;2022-08-23T00:16:56;5.18;;;2.40;;
34581;SDS011;20814;49.364;8.804;2022-08-23T00:19:22;3.58;;;1.98;;
34581;SDS011;20814;49.364;8.804;2022-08-23T00:21:48;3.17;;;2.45;;
34581;SDS011;20814;49.364;8.804;2022-08-23T00:24:14;2.65;;;1.85;;
34581;SDS011;20814;49.364;8.804;2022-08-23T00:29:26;2.70;;;2.10;;
34581;SDS011;20814;49.364;8.804;2022-08-23T00:31:52;3.67;;;2.00;;
34581;SDS011;20814;49.364;8.804;2022-08-23T00:34:17;2.92;;;2.17;;
34581;SDS011;20814;49.364;8.804;2022-08-23T00:36:42;2.63;;;1.87;;
34581;SDS011;20814;49.364;8.804;2022-08-23T00:39:09;2.75;;;2.10;;
34581;SDS011;20814;49.364;8.804;2022-08-23T00:41:35;4.03;;;2.10;;
34581;SDS011;20814;49.364;8.804;2022-08-23T00:44:00;3.72;;;2.25;;
34581;SDS011;20814;49.364;8.804;2022-08-23T00:46:55;4.80;;;2.40;;
34581;SDS011;20814;49.364;8.804;2022-08-23T00:49:40;3.00;;;1.73;;
34581;SDS011;20814;49.364;8.804;2022-08-23T00:52:16;2.38;;;2.05;;
34581;SDS011;20814;49.364;8.804;2022-08-23T00:54:44;5.07;;;2.08;;
34581;SDS011;20814;49.364;8.804;2022-08-23T00:57:11;2.53;;;1.80;;
34581;SDS011;20814;49.364;8.804;2022-08-23T00:59:37;3.95;;;2.20;;
34581;SDS011;20814;49.364;8.804;2022-08-23T01:02:03;5.05;;;2.25;;
34581;SDS011;20814;49.364;8.804;2022-08-23T01:04:30;11.35;;;2.33;;
34581;SDS011;20814;49.364;8.804;2022-08-23T01:07:03;3.35;;;1.90;;
34581;SDS011;20814;49.364;8.804;2022-08-23T01:09:32;2.35;;;2.00;;
34581;SDS011;20814;49.364;8.804;2022-08-23T01:12:19;5.23;;;2.37;;
34581;SDS011;20814;49.364;8.804;2022-08-23T01:15:04;2.40;;;1.98;;
34581;SDS011;20814;49.364;8.804;2022-08-23T01:17:39;3.00;;;2.10;;
34581;SDS011;20814;49.364;8.804;2022-08-23T01:20:06;2.83;;;2.10;;
34581;SDS011;20814;49.364;8.804;2022-08-23T01:22:37;3.17;;;2.10;;
34581;SDS011;20814;49.364;8.804;2022-08-23T01:25:06;5.75;;;2.28;;
34581;SDS011;20814;49.364;8.804;2022-08-23T01:27:32;9.02;;;2.15;;
34581;SDS011;20814;49.364;8.804;2022-08-23T01:29:58;3.38;;;2.25;;
34581;SDS011;20814;49.364;8.804;2022-08-23T01:32:23;3.00;;;2.43;;
34581;SDS011;20814;49.364;8.804;2022-08-23T01:34:49;5.78;;;2.10;;
34581;SDS011;20814;49.364;8.804;2022-08-23T01:37:15;2.58;;;2.08;;
34581;SDS011;20814;49.364;8.804;2022-08-23T01:39:40;2.40;;;1.70;;
34581;SDS011;20814;49.364;8.804;2022-08-23T01:42:05;2.67;;;2.17;;
34581;SDS011;20814;49.364;8.804;2022-08-23T01:44:32;3.35;;;1.95;;
34581;SDS011;20814;49.364;8.804;2022-08-23T01:46:57;5.90;;;2.55;;
34581;SDS011;20814;49.364;8.804;2022-08-23T01:49:22;3.33;;;2.20;;
34581;SDS011;20814;49.364;8.804;2022-08-23T06:36:10;6.32;;;2.50;;
34581;SDS011;20814;49.364;8.804;2022-08-23T06:38:46;6.15;;;2.28;;
34581;SDS011;20814;49.364;8.804;2022-08-23T06:44:23;4.75;;;2.67;;
34581;SDS011;20814;49.364;8.804;2022-08-23T06:46:59;5.70;;;2.60;;
34581;SDS011;20814;49.364;8.804;2022-08-23T06:49:25;7.47;;;2.90;;
34581;SDS011;20814;49.364;8.804;2022-08-23T06:51:52;3.95;;;2.78;;
34581;SDS011;20814;49.364;8.804;2022-08-23T06:54:18;3.50;;;2.42;;
34581;SDS011;20814;49.364;8.804;2022-08-23T06:56:44;7.35;;;2.53;;
34581;SDS011;20814;49.364;8.804;2022-08-23T06:59:10;7.72;;;2.72;;
34581;SDS011;20814;49.364;8.804;2022-08-23T07:04:03;9.93;;;2.53;;
34581;SDS011;20814;49.364;8.804;2022-08-23T07:06:30;12.68;;;3.00;;
34581;SDS011;20814;49.364;8.804;2022-08-23T07:08:56;7.13;;;2.67;;
34581;SDS011;20814;49.364;8.804;2022-08-23T07:11:22;6.18;;;2.40;;
34581;SDS011;20814;49.364;8.804;2022-08-23T07:13:47;6.93;;;2.90;;
34581;SDS011;20814;49.364;8.804;2022-08-23T07:16:13;8.20;;;2.50;;
34581;SDS011;20814;49.364;8.804;2022-08-23T07:18:41;5.40;;;2.38;;
34581;SDS011;20814;49.364;8.804;2022-08-23T07:21:07;10.07;;;2.50;;
34581;SDS011;20814;49.364;8.804;2022-08-23T07:23:32;6.15;;;2.60;;
34581;SDS011;20814;49.364;8.804;2022-08-23T07:26:02;5.60;;;2.40;;
34581;SDS011;20814;49.364;8.804;2022-08-23T07:28:28;4.38;;;2.60;;
34581;SDS011;20814;49.364;8.804;2022-08-23T07:30:54;3.72;;;2.40;;
34581;SDS011;20814;49.364;8.804;2022-08-23T07:33:20;6.50;;;2.55;;
34581;SDS011;20814;49.364;8.804;2022-08-23T07:35:49;6.80;;;2.88;;
34581;SDS011;20814;49.364;8.804;2022-08-23T07:38:14;2.47;;;1.90;;
34581;SDS011;20814;49.364;8.804;2022-08-23T07:40:40;5.40;;;1.95;;
34581;SDS011;20814;49.364;8.804;2022-08-23T07:43:05;3.03;;;1.83;;
34581;SDS011;20814;49.364;8.804;2022-08-23T07:45:31;4.25;;;2.00;;
34581;SDS011;20814;49.364;8.804;2022-08-23T07:47:56;3.50;;;2.03;;
34581;SDS011;20814;49.364;8.804;2022-08-23T07:50:21;3.40;;;2.22;;
34581;SDS011;20814;49.364;8.804;2022-08-23T07:52:46;4.13;;;1.80;;
34581;SDS011;20814;49.364;8.804;2022-08-23T07:55:12;2.15;;;1.85;;
34581;SDS011;20814;49.364;8.804;2022-08-23T07:57:37;2.05;;;1.70;;
34581;SDS011;20814;49.364;8.804;2022-08-23T08:00:02;3.13;;;1.70;;
34581;SDS011;20814;49.364;8.804;2022-08-23T08:02:28;3.22;;;1.55;;
34581;SDS011;20814;49.364;8.804;2022-08-23T08:04:53;5.57;;;2.00;;
34581;SDS011;20814;49.364;8.804;2022-08-23T08:07:18;3.20;;;1.80;;
34581;SDS011;20814;49.364;8.804;2022-08-23T08:09:45;3.05;;;1.67;;
34581;SDS011;20814;49.364;8.804;2022-08-23T08:12:12;1.80;;;1.70;;
34581;SDS011;20814;49.364;8.804;2022-08-23T08:14:37;4.55;;;1.80;;
34581;SDS011;20814;49.364;8.804;2022-08-23T08:17:03;5.47;;;1.80;;
34581;SDS011;20814;49.364;8.804;2022-08-23T08:19:28;4.50;;;1.77;;
34581;SDS011;20814;49.364;8.804;2022-08-23T08:21:53;5.67;;;2.00;;
34581;SDS011;20814;49.364;8.804;2022-08-23T08:24:19;3.93;;;1.93;;
34581;SDS011;20814;49.364;8.804;2022-08-23T08:26:45;4.18;;;1.67;;
34581;SDS011;20814;49.364;8.804;2022-08-23T08:29:11;3.60;;;1.90;;
34581;SDS011;20814;49.364;8.804;2022-08-23T08:31:36;4.38;;;1.80;;
34581;SDS011;20814;49.364;8.804;2022-08-23T08:34:03;4.85;;;1.52;;
34581;SDS011;20814;49.364;8.804;2022-08-23T08:36:36;3.30;;;1.80;;
34581;SDS011;20814;49.364;8.804;2022-08-23T08:39:10;5.13;;;1.83;;
34581;SDS011;20814;49.364;8.804;2022-08-23T08:44:30;5.13;;;1.75;;
34581;SDS011;20814;49.364;8.804;2022-08-23T08:46:57;2.70;;;2.05;;
34581;SDS011;20814;49.364;8.804;2022-08-23T08:49:34;2.97;;;1.70;;
34581;SDS011;20814;49.364;8.804;2022-08-23T08:52:02;6.47;;;1.60;;
34581;SDS011;20814;49.364;8.804;2022-08-23T08:54:31;4.05;;;2.00;;
34581;SDS011;20814;49.364;8.804;2022-08-23T08:56:57;2.78;;;1.85;;
34581;SDS011;20814;49.364;8.804;2022-08-23T08:59:24;2.00;;;1.60;;
34581;SDS011;20814;49.364;8.804;2022-08-23T09:01:51;6.05;;;1.73;;
34581;SDS011;20814;49.364;8.804;2022-08-23T09:04:16;1.58;;;1.48;;
34581;SDS011;20814;49.364;8.804;2022-08-23T09:06:57;3.03;;;1.67;;
34581;SDS011;20814;49.364;8.804;2022-08-23T09:09:29;3.05;;;1.95;;
34581;SDS011;20814;49.364;8.804;2022-08-23T09:12:00;3.80;;;1.83;;
34581;SDS011;20814;49.364;8.804;2022-08-23T09:14:42;9.75;;;2.15;;
34581;SDS011;20814;49.364;8.804;2022-08-23T09:17:17;2.90;;;1.70;;
34581;SDS011;20814;49.364;8.804;2022-08-23T09:19:43;3.35;;;1.75;;
34581;SDS011;20814;49.364;8.804;2022-08-23T09:22:10;5.45;;;1.67;;
34581;SDS011;20814;49.364;8.804;2022-08-23T09:24:37;2.88;;;1.70;;
34581;SDS011;20814;49.364;8.804;2022-08-23T09:27:03;4.07;;;1.98;;
34581;SDS011;20814;49.364;8.804;2022-08-23T09:29:29;5.30;;;1.85;;
34581;SDS011;20814;49.364;8.804;2022-08-23T09:31:56;3.28;;;1.92;;
34581;SDS011;20814;49.364;8.804;2022-08-23T09:37:04;3.45;;;1.83;;
34581;SDS011;20814;49.364;8.804;2022-08-23T09:39:30;3.17;;;1.90;;
34581;SDS011;20814;49.364;8.804;2022-08-23T09:41:56;3.45;;;1.80;;
34581;SDS011;20814;49.364;8.804;2022-08-23T09:44:40;3.72;;;1.70;;
34581;SDS011;20814;49.364;8.804;2022-08-23T09:47:14;3.10;;;2.00;;
34581;SDS011;20814;49.364;8.804;2022-08-23T09:49:41;2.80;;;2.03;;
34581;SDS011;20814;49.364;8.804;2022-08-23T09:54:41;2.40;;;1.80;;
34581;SDS011;20814;49.364;8.804;2022-08-23T09:57:07;4.45;;;1.83;;
34581;SDS011;20814;49.364;8.804;2022-08-23T09:59:41;5.60;;;2.00;;
34581;SDS011;20814;49.364;8.804;2022-08-23T10:02:29;4.18;;;1.80;;
34581;SDS011;20814;49.364;8.804;2022-08-23T10:07:31;3.22;;;1.58;;
34581;SDS011;20814;49.364;8.804;2022-08-23T10:10:11;2.83;;;1.77;;
34581;SDS011;20814;49.364;8.804;2022-08-23T10:12:37;5.00;;;1.75;;
34581;SDS011;20814;49.364;8.804;2022-08-23T10:15:03;7.67;;;2.00;;
34581;SDS011;20814;49.364;8.804;2022-08-23T10:17:44;1.83;;;1.60;;
34581;SDS011;20814;49.364;8.804;2022-08-23T10:22:54;2.45;;;1.65;;
34581;SDS011;20814;49.364;8.804;2022-08-23T10:28:14;6.13;;;1.60;;
34581;SDS011;20814;49.364;8.804;2022-08-23T10:31:23;2.78;;;1.80;;
34581;SDS011;20814;49.364;8.804;2022-08-23T10:34:15;3.50;;;1.90;;
34581;SDS011;20814;49.364;8.804;2022-08-23T10:36:59;2.63;;;1.63;;
34581;SDS011;20814;49.364;8.804;2022-08-23T10:39:32;3.65;;;1.30;;
34581;SDS011;20814;49.364;8.804;2022-08-23T10:42:10;2.70;;;1.58;;
34581;SDS011;20814;49.364;8.804;2022-08-23T10:49:48;4.22;;;2.00;;
34581;SDS011;20814;49.364;8.804;2022-08-23T10:52:16;3.25;;;1.83;;
34581;SDS011;20814;49.364;8.804;2022-08-23T10:54:47;2.67;;;1.52;;
34581;SDS011;20814;49.364;8.804;2022-08-23T10:57:27;5.05;;;1.80;;
34581;SDS011;20814;49.364;8.804;2022-08-23T10:59:54;4.40;;;1.80;;
34581;SDS011;20814;49.364;8.804;2022-08-23T11:02:27;5.70;;;1.73;;
34581;SDS011;20814;49.364;8.804;2022-08-23T11:07:29;5.60;;;1.70;;
34581;SDS011;20814;49.364;8.804;2022-08-23T11:12:30;7.47;;;1.70;;
34581;SDS011;20814;49.364;8.804;2022-08-23T11:18:07;3.42;;;1.67;;
34581;SDS011;20814;49.364;8.804;2022-08-23T11:20:08;9.52;;;1.45;;
34581;SDS011;20814;49.364;8.804;2022-08-23T11:27:44;4.70;;;1.50;;
34581;SDS011;20814;49.364;8.804;2022-08-23T11:32:54;3.78;;;2.10;;
34581;SDS011;20814;49.364;8.804;2022-08-23T11:35:38;5.82;;;1.80;;
34581;SDS011;20814;49.364;8.804;2022-08-23T11:38:04;2.13;;;1.63;;
34581;SDS011;20814;49.364;8.804;2022-08-23T11:43:11;2.00;;;1.38;;
34581;SDS011;20814;49.364;8.804;2022-08-23T11:53:13;3.35;;;1.77;;
34581;SDS011;20814;49.364;8.804;2022-08-23T11:58:31;4.03;;;1.65;;
34581;SDS011;20814;49.364;8.804;2022-08-23T12:01:09;9.40;;;1.65;;
34581;SDS011;20814;49.364;8.804;2022-08-23T12:06:07;2.05;;;1.55;;
34581;SDS011;20814;49.364;8.804;2022-08-23T12:12:04;1.50;;;1.30;;
34581;SDS011;20814;49.364;8.804;2022-08-23T12:19:38;6.50;;;1.70;;
34581;SDS011;20814;49.364;8.804;2022-08-23T12:22:05;6.90;;;1.92;;
34581;SDS011;20814;49.364;8.804;2022-08-23T12:24:33;3.10;;;1.58;;
34581;SDS011;20814;49.364;8.804;2022-08-23T12:27:19;1.42;;;1.30;;
34581;SDS011;20814;49.364;8.804;2022-08-23T12:43:05;2.75;;;1.58;;
34581;SDS011;20814;49.364;8.804;2022-08-23T12:45:35;2.97;;;1.50;;
34581;SDS011;20814;49.364;8.804;2022-08-23T12:48:02;3.38;;;1.83;;
34581;SDS011;20814;49.364;8.804;2022-08-23T13:39:28;3.10;;;1.20;;
